Latest Coastal Weather Observations for Ceduna

IDS60701

Issued at 9:01 am CST Thursday 25 May 2017 (issued every 10 minutes, with the page automatically refreshed every 10 minutes)

About coastal observations | Map of coastal stations | Coastal observations for SA | Marine services | Other Formats
Station Details ID: 018012 Name: CEDUNA AMO Lat: -32.13 Lon: 133.70 Height: 15.3 m
Data from the previous 72 hours. | See also: Recent months at Ceduna
Date/Time
CST
Temp
°C
Wind Pressure Rain since
9am
mm
Weather Cloud Vis
km
Sea
Height
m
Swell
Dir  Spd
kts
Gust
kts
hPa Trend Height
m
Period
s
Dir
25/09:00am 12.1 NNE 4 5 1023.2 R 0.0 - - 10 - - - -
25/08:30am 10.0 N 5 7 1023.0 - 0.0 - - 10 - - - -
25/08:00am 8.3 NNE 7 9 1022.6 - 0.0 - - 10 - - - -
25/07:30am 6.4 NNE 3 4 1022.2 - 0.0 - - 10 - - - -
25/07:00am 6.4 NE 4 5 1021.9 - 0.0 - - 10 - - - -
25/06:30am 7.4 NE 4 5 1021.8 - 0.0 - - 10 - - - -
25/06:00am 7.2 NE 3 4 1021.5 F 0.0 - - 10 - - - -
25/05:30am 7.9 NE 5 6 1021.2 - 0.0 - - 10 - - - -
25/05:00am 9.0 NNE 5 7 1021.4 - 0.0 - - 10 - - - -
25/04:30am 8.5 NE 7 8 1021.2 - 0.0 - - 10 - - - -
25/04:00am 7.8 NE 6 7 1021.5 - 0.0 - - 10 - - - -
25/03:30am 6.1 NE 4 5 1021.5 - 0.0 - - 7 - - - -
25/03:01am 6.3 NNE 5 5 1021.8 - 0.0 - - 10 - - - -
25/03:00am 6.3 NNE 5 5 1021.8 F 0.0 - - 10 - - - -
25/02:38am 6.9 NNE 4 5 1021.7 - 0.0 - - 4 - - - -
25/02:30am 6.1 N 4 4 1021.8 - 0.0 - - 10 - - - -
25/02:26am 6.0 N 4 6 1021.8 - 0.0 - - 10 - - - -
25/02:00am 6.0 NE 5 5 1021.9 - 0.0 - - 1 - - - -
25/01:30am 7.0 N 3 4 1022.1 - 0.0 - Partly cloudy 0.5 - - - -
25/01:00am 7.0 N 3 4 1022.3 - 0.0 - - 0.5 - - - -
25/12:30am 6.4 NNE 3 4 1022.6 - 0.0 - - 1 - - - -
25/12:00am 7.1 ENE 4 5 1022.6 S 0.0 - - 0.4 - - - -
 
Date/Time
CST
Temp
°C
Wind Pressure Rain since
9am
mm
Weather Cloud Vis
km
Sea
Height
m
Swell
Dir  Spd
kts
Gust
kts
hPa Trend Height
m
Period
s
Dir
24/11:30pm 8.9 NE 4 5 1022.5 - 0.0 - - 3 - - - -
24/11:23pm 8.3 ENE 4 5 1022.4 - 0.0 - - 5 - - - -
24/11:22pm 8.6 ENE 4 5 1022.4 - 0.0 - - 7 - - - -
24/11:01pm 8.6 NE 5 7 1022.4 - 0.0 - - 5 - - - -
24/11:00pm 8.7 NE 6 8 1022.4 - 0.0 - - 10 - - - -
24/10:58pm 8.8 NE 7 8 1022.5 - 0.0 - - 10 - - - -
24/10:42pm 8.7 ENE 5 6 1022.6 - 0.0 - Partly cloudy 1 - - - -
24/10:30pm 9.1 ENE 2 4 1022.6 - 0.0 - Partly cloudy 0.7 - - - -
24/10:00pm 9.5 ENE 4 6 1022.7 - 0.0 - Partly cloudy 0.2 - - - -
24/09:54pm 8.7 ENE 3 5 1022.7 - 0.0 - Partly cloudy 0.2 - - - -
24/09:30pm 8.4 NE 3 4 1022.8 - 0.0 - - 2 - - - -
24/09:26pm 8.6 NE 3 4 1022.8 - 0.0 - - 5 - - - -
24/09:00pm 9.8 NNE 4 6 1022.9 F 0.0 - - 10 - - - -
24/08:30pm 10.1 NE 5 6 1022.7 - 0.0 - - 10 - - - -
24/08:00pm 10.5 E 7 8 1022.6 - 0.0 - - 10 - - - -
24/07:30pm 11.8 S 5 6 1022.5 - 0.0 - - 10 - - - -
24/07:00pm 12.3 S 5 6 1022.4 - 0.0 - - 10 - - - -
24/06:30pm 13.0 S 5 6 1022.1 - 0.0 - - 10 - - - -
24/06:00pm 14.4 SW 6 6 1021.9 F 0.0 - - 10 - - - -
24/05:30pm 16.1 SSW 5 6 1021.8 - 0.0 - - 10 - - - -
24/05:00pm 17.3 SSW 7 9 1021.8 - 0.0 - - 10 - - - -
24/04:30pm 18.0 SW 7 9 1021.6 - 0.0 - - 10 - - - -
24/04:00pm 18.6 SW 9 11 1021.5 - 0.0 - - 10 - - - -
24/03:30pm 18.3 SW 11 13 1021.4 - 0.0 - - 10 - - - -
24/03:00pm 18.4 SW 11 13 1021.6 S 0.0 - - 10 - - - -
24/02:30pm 19.1 SW 11 14 1021.7 - 0.0 - - 10 - - - -
24/02:00pm 19.0 SW 10 13 1021.9 - 0.0 - Partly cloudy 10 - - - -
24/01:30pm 20.1 SW 11 13 1022.1 - 0.0 - Partly cloudy 10 - - - -
24/01:00pm 19.4 SW 9 12 1022.4 - 0.0 - Partly cloudy 10 - - - -
24/12:30pm 20.3 W 8 11 1023.0 - 0.0 - - 10 - - - -
24/12:00pm 19.6 WNW 9 11 1023.4 F 0.0 - - 10 - - - -
24/11:30am 19.1 W 8 10 1023.7 - 0.0 - - 10 - - - -
24/11:00am 18.8 WNW 9 12 1024.0 - 0.0 - - 10 - - - -
24/10:30am 17.7 NW 9 11 1024.1 - 0.0 - - 10 - - - -
24/10:00am 16.2 NW 8 11 1024.1 - 0.0 - Partly cloudy 10 - - - -
24/09:30am 14.2 NW 8 11 1024.0 - 0.0 - Partly cloudy 10 - - - -
24/09:00am 13.1 NNW 8 12 1024.0 R 0.0 - Partly cloudy 10 - - - -
24/08:30am 10.5 NNW 8 9 1023.7 - 0.0 - - 10 - - - -
24/08:00am 9.2 NNW 7 9 1023.3 - 0.0 - - 10 - - - -
24/07:30am 8.2 NNW 8 9 1022.9 - 0.0 - - 10 - - - -
24/07:00am 7.3 N 6 7 1022.7 - 0.0 - - 10 - - - -
24/06:30am 7.6 NNW 7 7 1022.5 - 0.0 - - 10 - - - -
24/06:00am 8.0 NNW 5 5 1022.5 R 0.0 - - 10 - - - -
24/05:30am 8.1 N 5 6 1022.3 - 0.0 - - 10 - - - -
24/05:00am 7.7 N 5 7 1022.3 - 0.0 - - 10 - - - -
24/04:30am 7.5 N 5 6 1022.3 - 0.0 - - 10 - - - -
24/04:00am 8.3 N 5 6 1022.2 - 0.0 - - 10 - - - -
24/03:30am 9.8 NNW 7 8 1022.2 - 0.0 - - 10 - - - -
24/03:00am 9.2 NNW 6 7 1022.1 R 0.0 - - 10 - - - -
24/02:30am 9.7 NNW 5 7 1022.1 - 0.0 - - 10 - - - -
24/02:00am 10.2 NW 7 8 1022.1 - 0.0 - - 10 - - - -
24/01:30am 10.5 NW 7 9 1022.1 - 0.0 - - 10 - - - -
24/01:00am 10.2 NNW 7 8 1022.1 - 0.0 - - 10 - - - -
24/12:30am 9.3 NNW 6 7 1022.1 - 0.0 - - 10 - - - -
24/12:00am 10.1 NNW 6 7 1022.1 R 0.0 - - 10 - - - -
 
Date/Time
CST
Temp
°C
Wind Pressure Rain since
9am
mm
Weather Cloud Vis
km
Sea
Height
m
Swell
Dir  Spd
kts
Gust
kts
hPa Trend Height
m
Period
s
Dir
23/11:30pm 11.0 NW 7 9 1022.3 - 0.0 - - 10 - - - -
23/11:00pm 10.7 NNW 7 8 1022.3 - 0.0 - - 10 - - - -
23/10:30pm 10.6 NNW 6 7 1022.4 - 0.0 - - 10 - - - -
23/10:00pm 11.2 NW 7 8 1022.3 - 0.0 - - 10 - - - -
23/09:30pm 11.3 NW 6 8 1022.1 - 0.0 - - 10 - - - -
23/09:00pm 12.2 NNW 6 8 1021.9 R 0.0 - - 10 - - - -
23/08:30pm 14.6 WNW 8 9 1021.8 - 0.0 - - 10 - - - -
23/08:00pm 14.8 WNW 9 11 1021.5 - 0.0 - Partly cloudy 10 - - - -
23/07:30pm 15.0 WNW 8 11 1021.2 - 0.0 - - 10 - - - -
23/07:00pm 15.2 WNW 8 12 1020.9 - 0.0 - - 10 - - - -
23/06:30pm 15.6 WNW 9 12 1020.5 - 0.0 - - 10 - - - -
23/06:00pm 16.0 W 11 14 1020.3 R 0.0 - - 10 - - - -
23/05:30pm 16.6 W 11 14 1020.0 - 0.0 - - 10 - - - -
23/05:00pm 17.5 W 12 18 1019.9 - 0.0 - - 10 - - - -
23/04:30pm 18.2 W 13 18 1019.6 - 0.0 - Partly cloudy 10 - - - -
23/04:00pm 18.4 W 14 18 1019.3 - 0.0 - - 10 - - - -
23/03:30pm 18.8 W 12 16 1019.3 - 0.0 - Partly cloudy 10 - - - -
23/03:00pm 19.0 W 12 17 1019.1 R 0.0 - Partly cloudy 10 - - - -
23/02:30pm 19.4 W 13 17 1019.2 - 0.0 - - 10 - - - -
23/02:00pm 19.5 W 14 19 1019.1 - 0.0 - - 10 - - - -
23/01:30pm 19.7 W 14 18 1019.3 - 0.0 - Partly cloudy 10 - - - -
23/01:00pm 19.2 W 12 16 1019.5 - 0.0 - - 10 - - - -
23/12:30pm 18.9 WNW 13 17 1019.7 - 0.0 - - 10 - - - -
23/12:00pm 18.5 WNW 12 16 1020.0 R 0.0 - - 10 - - - -
23/11:30am 18.0 W 14 18 1020.3 - 0.0 - - 10 - - - -
23/11:00am 18.1 WNW 12 17 1020.6 - 0.0 - Partly cloudy 10 - - - -
23/10:30am 17.0 WNW 11 15 1020.7 - 0.0 - Partly cloudy 10 - - - -
23/10:00am 16.4 NW 10 14 1020.5 - 0.0 - Partly cloudy 10 - - - -
23/09:30am 14.9 NW 9 12 1020.4 - 0.0 - Partly cloudy 10 - - - -
23/09:00am 12.8 NW 7 10 1020.2 R 0.0 - Partly cloudy 10 - - - -
23/08:30am 10.1 N 5 6 1019.8 - 0.0 - - 10 - - - -
23/08:00am 7.9 N 5 6 1019.7 - 0.0 - - 10 - - - -
23/07:30am 8.0 NNW 8 9 1019.6 - 0.0 - Partly cloudy 10 - - - -
23/07:00am 7.8 NW 7 9 1019.2 - 0.0 - Partly cloudy 10 - - - -
23/06:30am 6.3 NNW 6 7 1019.0 - 0.0 - - 10 - - - -
23/06:00am 6.4 NNW 5 6 1018.9 R 0.0 - - 10 - - - -
23/05:30am 6.8 NNW 5 6 1018.5 - 0.0 - - 10 - - - -
23/05:00am 7.8 NW 6 8 1018.2 - 0.0 - - 10 - - - -
23/04:30am 8.0 NW 6 7 1018.3 - 0.0 - Partly cloudy 10 - - - -
23/04:00am 8.0 NNW 6 7 1018.3 - 0.0 - - 10 - - - -
23/03:30am 8.2 NNW 7 7 1018.4 - 0.0 - Partly cloudy 10 - - - -
23/03:00am 8.2 NNW 6 7 1018.4 S 0.0 - Partly cloudy 10 - - - -
23/02:30am 7.8 NNW 5 6 1018.5 - 0.0 - - 10 - - - -
23/02:00am 8.2 NNW 7 8 1018.7 - 0.0 - Partly cloudy 10 - - - -
23/01:30am 7.5 N 6 6 1018.7 - 0.0 - - 10 - - - -
23/01:00am 8.8 N 7 8 1018.6 - 0.0 - - 10 - - - -
23/12:30am 9.7 N 6 8 1018.7 - 0.0 - - 10 - - - -
23/12:00am 9.1 NNW 6 7 1018.9 R 0.0 - - 10 - - - -
 
Date/Time
CST
Temp
°C
Wind Pressure Rain since
9am
mm
Weather Cloud Vis
km
Sea
Height
m
Swell
Dir  Spd
kts
Gust
kts
hPa Trend Height
m
Period
s
Dir
22/11:30pm 9.6 N 6 7 1018.9 - 0.0 - - 10 - - - -
22/11:00pm 10.1 N 6 7 1018.9 - 0.0 - - 10 - - - -
22/10:30pm 10.4 NW 3 5 1018.8 - 0.0 - - 10 - - - -
22/10:00pm 11.7 NW 4 5 1018.6 - 0.0 - - 10 - - - -
22/09:30pm 11.7 NNW 4 5 1018.4 - 0.0 - Partly cloudy 10 - - - -
22/09:00pm 12.7 N 5 6 1018.1 R 0.0 - - 10 - - - -
22/08:30pm 14.8 WSW 6 7 1017.6 - 0.0 - - 10 - - - -
22/08:00pm 14.8 WSW 7 8 1017.3 - 0.0 - - 10 - - - -
22/07:30pm 15.4 WSW 6 7 1016.8 - 0.0 - - 10 - - - -
22/07:00pm 15.9 WSW 7 9 1016.5 - 0.0 - - 10 - - - -
22/06:30pm 16.2 WSW 8 11 1016.1 - 0.0 - Partly cloudy 10 - - - -
22/06:00pm 16.8 WSW 8 11 1015.8 R 0.0 - Partly cloudy 10 - - - -
22/05:30pm 17.2 WSW 10 13 1015.2 - 0.0 - - 10 - - - -
22/05:00pm 18.5 WSW 12 16 1014.7 - 0.0 - - 10 - - - -
22/04:30pm 19.0 WSW 13 17 1014.4 - 0.0 - - 10 - - - -
22/04:00pm 19.9 WSW 13 17 1014.1 - 0.0 - - 10 - - - -
22/03:30pm 19.9 SW 11 14 1013.6 - 0.0 - Partly cloudy 10 - - - -
22/03:00pm 19.7 WNW 7 10 1013.4 R 0.0 - Mostly cloudy 10 - - - -
22/02:30pm 19.7 WNW 8 11 1012.8 - 0.0 - Partly cloudy 10 - - - -
22/02:00pm 18.7 WSW 9 12 1013.0 - 0.0 - Partly cloudy 10 - - - -
22/01:30pm 19.5 SW 10 14 1013.1 - 0.0 - Partly cloudy 10 - - - -
22/01:00pm 20.2 SW 9 12 1012.8 - 0.0 - - 10 - - - -
22/12:30pm 19.4 SW 10 14 1013.3 - 0.0 - Partly cloudy 10 - - - -
22/12:00pm 19.7 WSW 12 16 1013.6 R 0.0 - - 10 - - - -
22/11:30am 20.4 W 14 19 1013.4 - 0.0 - Partly cloudy 10 - - - -
22/11:00am 21.3 W 13 19 1013.3 - 0.0 - Partly cloudy 10 - - - -
22/10:31am 21.9 WNW 17 27 1013.0 - 0.0 - - 10 - - - -
22/10:30am 21.9 WNW 18 27 1013.0 - 0.0 - - 10 - - - -
22/10:23am 22.3 WNW 19 27 1012.8 - 0.0 - - 10 - - - -
22/10:00am 22.7 NNW 17 23 1012.3 - 0.0 - - 10 - - - -
22/09:30am 21.8 N 18 24 1011.6 - 0.0 - - 10 - - - -

Other Formats:

Comma delimited format used in spreadsheet applications
http://www.bom.gov.au/fwo/IDS60701/IDS60701.94653.axf

JavaScript Object Notation format (JSON) in row-major order
http://www.bom.gov.au/fwo/IDS60701/IDS60701.94653.json